Time;durP1;ratioP1;P1;durP2;ratioP2;P2;SDS_P1;SDS_P2;PMS_P1;PMS_P2;Temp;Humidity;BMP_temperature;BMP_pressure;BME280_temperature;BME280_humidity;BME280_pressure;Samples;Min_cycle;Max_cycle;Signal;HPM_P1;HPM_P2
2023/08/24 00:00:33;;;;;;;6.47;3.38;;;;;;;20.34;96.96;101683.22;4809834;29;20055;-66
2023/08/24 00:03:02;;;;;;;7.28;3.60;;;;;;;20.33;96.65;101681.59;4809746;29;20058;-66
2023/08/24 00:05:34;;;;;;;8.32;3.50;;;;;;;20.27;97.20;101680.88;4793730;29;20488;-65
2023/08/24 00:08:08;;;;;;;8.00;3.22;;;;;;;20.22;97.32;101681.00;4808867;29;20146;-66
2023/08/24 00:10:37;;;;;;;8.77;3.65;;;;;;;20.25;97.28;101674.03;4808900;29;20055;-66
2023/08/24 00:13:05;;;;;;;6.78;3.05;;;;;;;20.27;97.42;101671.78;4777582;29;20054;-64
2023/08/24 00:15:33;;;;;;;7.05;3.20;;;;;;;20.26;97.20;101670.16;4809233;29;20055;-66
2023/08/24 00:18:01;;;;;;;6.68;3.40;;;;;;;20.23;97.46;101668.81;4808622;29;20058;-65
2023/08/24 00:20:29;;;;;;;6.28;3.47;;;;;;;20.23;97.45;101660.53;4794144;29;20059;-66
2023/08/24 00:22:57;;;;;;;7.07;3.22;;;;;;;20.23;97.78;101663.28;4794074;29;20059;-66
2023/08/24 00:25:25;;;;;;;7.50;3.38;;;;;;;20.23;97.91;101668.81;4809326;29;20055;-66
2023/08/24 00:27:56;;;;;;;9.45;3.15;;;;;;;20.27;97.58;101678.13;4792978;29;20057;-65
2023/08/24 00:30:24;;;;;;;5.75;2.90;;;;;;;20.28;97.52;101679.78;4792899;29;20385;-66
2023/08/24 00:32:52;;;;;;;5.93;3.30;;;;;;;20.30;97.38;101683.03;4777643;29;20058;-65
2023/08/24 00:35:20;;;;;;;5.85;3.30;;;;;;;20.33;97.32;101681.59;4792531;29;20053;-65
2023/08/24 00:37:48;;;;;;;5.90;3.30;;;;;;;20.35;97.10;101679.34;4808796;29;20051;-66
2023/08/24 00:40:16;;;;;;;9.77;3.63;;;;;;;20.31;96.99;101670.84;4791921;29;20054;-65
2023/08/24 00:42:46;;;;;;;9.35;3.72;;;;;;;20.21;97.21;101671.09;4792809;29;20419;-65
2023/08/24 00:45:13;;;;;;;12.70;3.80;;;;;;;20.08;98.42;101664.44;4777100;29;20069;-65
2023/08/24 00:47:46;;;;;;;7.78;3.55;;;;;;;19.95;99.41;101666.13;4808170;29;20059;-66
2023/08/24 00:50:15;;;;;;;10.43;4.10;;;;;;;19.88;99.98;101660.19;4792556;29;20054;-67
2023/08/24 00:52:43;;;;;;;8.60;3.90;;;;;;;19.87;100.00;101657.75;4792216;29;20129;-66
2023/08/24 00:55:11;;;;;;;5.10;3.00;;;;;;;19.90;100.00;101660.72;4792310;29;20058;-66
2023/08/24 00:57:41;;;;;;;11.00;3.30;;;;;;;19.95;100.00;101666.13;4790889;29;20047;-65
2023/08/24 01:00:10;;;;;;;7.28;3.58;;;;;;;19.99;100.00;101667.16;4774346;30;20051;-65
2023/08/24 01:02:39;;;;;;;10.00;4.18;;;;;;;19.96;99.77;101653.94;4790536;30;20059;-66
2023/08/24 01:05:07;;;;;;;7.82;4.07;;;;;;;19.91;100.00;101659.56;4788684;30;20450;-66
2023/08/24 01:07:37;;;;;;;8.88;4.20;;;;;;;19.84;100.00;101650.88;4789751;30;20055;-66
2023/08/24 01:10:08;;;;;;;11.50;4.72;;;;;;;19.74;100.00;101645.56;4804140;29;20051;-65
2023/08/24 01:12:47;;;;;;;7.47;4.10;;;;;;;19.73;100.00;101649.47;4777279;29;20055;-65
2023/08/24 01:15:33;;;;;;;8.38;3.70;;;;;;;19.76;100.00;101646.91;4792322;29;20062;-66
2023/08/24 01:18:05;;;;;;;9.32;4.07;;;;;;;19.82;100.00;101650.41;4791613;29;20049;-67
2023/08/24 01:20:36;;;;;;;6.78;3.83;;;;;;;19.84;100.00;101650.06;4808094;29;20373;-65
2023/08/24 01:23:18;;;;;;;6.47;4.05;;;;;;;19.84;100.00;101648.09;4777602;29;20059;-66
2023/08/24 01:25:53;;;;;;;8.38;3.67;;;;;;;19.83;100.00;101651.19;4807638;29;20059;-66
2023/08/24 01:28:22;;;;;;;9.52;4.10;;;;;;;19.83;100.00;101652.03;4791256;29;20047;-66
2023/08/24 01:30:50;;;;;;;8.00;3.92;;;;;;;19.85;100.00;101644.22;4777369;29;20110;-66
2023/08/24 01:33:17;;;;;;;8.65;4.30;;;;;;;19.83;100.00;101657.56;4791936;29;20088;-64
2023/08/24 01:35:46;;;;;;;10.23;4.78;;;;;;;19.78;100.00;101632.78;4792496;29;20054;-66
2023/08/24 01:38:15;;;;;;;9.57;4.50;;;;;;;19.70;100.00;101628.81;4791930;29;20058;-66
2023/08/24 01:41:04;;;;;;;9.27;4.00;;;;;;;19.69;100.00;101618.84;4792381;29;20473;-65
2023/08/24 01:43:34;;;;;;;9.02;4.47;;;;;;;19.66;100.00;101624.16;4792042;29;20399;-66
2023/08/24 01:46:14;;;;;;;9.27;4.05;;;;;;;19.68;100.00;101627.47;4793154;29;20454;-67
2023/08/24 01:48:44;;;;;;;5.78;3.50;;;;;;;19.67;100.00;101628.56;4776385;29;20051;-65
2023/08/24 01:51:12;;;;;;;8.20;3.58;;;;;;;19.68;100.00;101635.78;4776331;29;20061;-65
2023/08/24 01:53:40;;;;;;;8.82;4.45;;;;;;;19.71;100.00;101637.91;4776594;29;20073;-65
2023/08/24 01:56:12;;;;;;;6.88;4.40;;;;;;;19.70;100.00;101641.78;4807054;29;20059;-65
2023/08/24 01:58:40;;;;;;;7.75;4.28;;;;;;;19.72;100.00;101645.06;4776032;29;20050;-65
2023/08/24 02:01:10;;;;;;;8.20;4.57;;;;;;;19.73;100.00;101636.47;4793841;29;20051;-65
2023/08/24 02:03:39;;;;;;;9.23;4.00;;;;;;;19.72;100.00;101637.59;4779210;29;20083;-65
2023/08/24 02:06:08;;;;;;;9.60;4.90;;;;;;;19.67;100.00;101639.63;4825418;29;20050;-66
2023/08/24 02:08:36;;;;;;;12.43;5.60;;;;;;;19.60;100.00;101651.09;4781775;29;20119;-65
2023/08/24 02:11:04;;;;;;;12.15;5.13;;;;;;;19.53;100.00;101651.53;4791220;29;20058;-66
2023/08/24 02:13:33;;;;;;;9.88;4.97;;;;;;;19.54;100.00;101655.91;4806730;29;20063;-67
2023/08/24 02:16:08;;;;;;;8.95;5.07;;;;;;;19.55;100.00;101652.03;4790766;29;20496;-65
2023/08/24 02:18:37;;;;;;;10.65;4.53;;;;;;;19.57;100.00;101641.47;4804813;29;20058;-66
2023/08/24 02:21:12;;;;;;;8.85;4.22;;;;;;;19.63;100.00;101627.56;4806522;29;20066;-66
2023/08/24 02:23:41;;;;;;;9.27;4.80;;;;;;;19.63;100.00;101627.56;4806787;29;20054;-66
2023/08/24 02:26:09;;;;;;;8.73;4.88;;;;;;;19.62;100.00;101634.19;4806375;29;20103;-65
2023/08/24 02:28:38;;;;;;;10.65;5.13;;;;;;;19.62;100.00;101639.72;4775734;29;20511;-66
2023/08/24 02:31:06;;;;;;;9.63;5.07;;;;;;;19.59;100.00;101638.41;4791039;29;20058;-65
2023/08/24 02:33:34;;;;;;;9.23;5.03;;;;;;;19.57;100.00;101638.69;4806873;29;20054;-65
2023/08/24 02:36:02;;;;;;;9.93;4.85;;;;;;;19.61;100.00;101638.09;4790853;29;20051;-66
2023/08/24 02:38:30;;;;;;;9.25;5.25;;;;;;;19.54;100.00;101636.56;4789113;29;20055;-65
2023/08/24 02:41:05;;;;;;;11.88;5.70;;;;;;;19.47;100.00;101638.13;4806274;29;20419;-64
2023/08/24 02:43:33;;;;;;;11.52;5.15;;;;;;;19.46;100.00;101631.78;4775539;29;20394;-65
2023/08/24 02:46:06;;;;;;;7.47;4.38;;;;;;;19.50;100.00;101615.38;4790874;29;20051;-65
2023/08/24 02:48:35;;;;;;;10.13;5.20;;;;;;;19.55;100.00;101607.81;4775858;29;20051;-65
2023/08/24 02:51:04;;;;;;;11.07;5.53;;;;;;;19.58;100.00;101601.66;4775760;29;20043;-65
2023/08/24 02:53:32;;;;;;;9.27;4.55;;;;;;;19.55;100.00;101594.00;4775669;29;20059;-65
2023/08/24 02:56:01;;;;;;;12.35;5.43;;;;;;;19.59;100.00;101597.75;4790574;29;20068;-66
2023/08/24 02:58:29;;;;;;;11.77;4.70;;;;;;;19.62;100.00;101585.25;4775240;29;20051;-65
2023/08/24 03:00:57;;;;;;;11.10;5.05;;;;;;;19.65;100.00;101583.81;4820592;29;20495;-65
2023/08/24 03:03:25;;;;;;;12.27;6.00;;;;;;;19.64;100.00;101560.06;4824830;29;20054;-65
2023/08/24 03:06:03;;;;;;;12.10;5.78;;;;;;;19.66;100.00;101557.81;4813069;29;20487;-65
2023/08/24 03:08:31;;;;;;;9.52;5.20;;;;;;;19.64;100.00;101549.81;4789847;29;20043;-65
2023/08/24 03:11:01;;;;;;;11.57;5.18;;;;;;;19.63;100.00;101531.59;4790274;29;20050;-65
2023/08/24 03:13:30;;;;;;;10.15;4.78;;;;;;;19.64;100.00;101518.59;4806711;29;20062;-65
2023/08/24 03:15:59;;;;;;;13.80;6.70;;;;;;;19.63;100.00;101497.63;4781322;29;20106;-65
2023/08/24 03:18:28;;;;;;;11.15;6.65;;;;;;;19.56;100.00;101492.53;4791671;29;20115;-63
2023/08/24 03:20:56;;;;;;;10.52;4.95;;;;;;;19.46;100.00;101482.53;4799495;29;20054;-65
2023/08/24 03:23:24;;;;;;;10.73;5.78;;;;;;;19.47;100.00;101466.75;4820618;29;20514;-64
2023/08/24 03:25:52;;;;;;;13.35;6.95;;;;;;;19.45;100.00;101458.75;4800819;29;20133;-59
2023/08/24 03:28:20;;;;;;;10.10;5.40;;;;;;;19.46;100.00;101465.94;4808686;29;20065;-64
2023/08/24 03:30:50;;;;;;;10.55;6.60;;;;;;;19.48;100.00;101471.97;4807901;29;20106;-60
2023/08/24 03:33:19;;;;;;;15.40;7.22;;;;;;;19.44;100.00;101473.72;4789665;29;20125;-65
2023/08/24 03:35:47;;;;;;;10.57;5.70;;;;;;;19.39;100.00;101482.13;4794168;29;20070;-64
2023/08/24 03:38:15;;;;;;;9.73;5.40;;;;;;;19.44;100.00;101468.19;4778773;29;20066;-65
2023/08/24 03:40:43;;;;;;;10.93;6.53;;;;;;;19.51;100.00;101449.22;4778987;29;20059;-66
2023/08/24 03:43:11;;;;;;;12.48;7.57;;;;;;;19.47;100.00;101461.22;4794067;29;20065;-65
2023/08/24 03:45:41;;;;;;;12.88;8.13;;;;;;;19.34;100.00;101471.19;4793775;29;20062;-65
2023/08/24 03:48:10;;;;;;;16.58;8.05;;;;;;;19.28;100.00;101477.97;4777972;29;20081;-65
2023/08/24 03:50:38;;;;;;;14.30;6.60;;;;;;;19.27;100.00;101476.34;4809504;29;20066;-65
2023/08/24 03:53:07;;;;;;;14.18;8.60;;;;;;;19.23;100.00;101475.31;4779702;29;20081;-65
2023/08/24 03:55:35;;;;;;;17.92;8.73;;;;;;;19.17;100.00;101485.66;4793361;29;20403;-66
2023/08/24 03:58:03;;;;;;;16.45;9.10;;;;;;;19.13;100.00;101490.16;4777810;29;20057;-65
2023/08/24 04:00:31;;;;;;;14.75;8.55;;;;;;;19.04;100.00;101492.84;4808990;29;20051;-67
2023/08/24 04:03:00;;;;;;;18.02;8.82;;;;;;;19.01;100.00;101493.47;4790870;29;20058;-66
2023/08/24 04:05:29;;;;;;;18.15;9.32;;;;;;;18.85;100.00;101492.13;4791465;29;20063;-67
2023/08/24 04:07:57;;;;;;;14.25;8.63;;;;;;;18.84;100.00;101490.50;4791307;29;20059;-66
2023/08/24 04:10:25;;;;;;;13.32;8.00;;;;;;;18.90;100.00;101481.78;4791296;29;20058;-65
2023/08/24 04:12:53;;;;;;;15.43;8.75;;;;;;;18.92;100.00;101474.03;4792377;29;20054;-64
2023/08/24 04:15:22;;;;;;;14.48;8.30;;;;;;;18.94;100.00;101470.97;4776616;29;20065;-66
2023/08/24 04:17:50;;;;;;;12.88;7.80;;;;;;;18.96;100.00;101471.47;4791051;29;20051;-66
2023/08/24 04:20:18;;;;;;;14.88;8.05;;;;;;;19.01;100.00;101470.56;4793187;29;20051;-65
2023/08/24 04:22:46;;;;;;;16.05;8.45;;;;;;;19.07;100.00;101475.66;4793978;29;20069;-65
2023/08/24 04:25:14;;;;;;;12.82;7.35;;;;;;;19.12;100.00;101472.78;4809317;29;20046;-65
2023/08/24 04:27:42;;;;;;;12.38;6.53;;;;;;;19.21;100.00;101463.75;4808569;29;20071;-66
2023/08/24 04:30:11;;;;;;;13.35;7.97;;;;;;;19.29;100.00;101468.53;4820861;29;20054;-65
2023/08/24 04:32:40;;;;;;;10.88;6.82;;;;;;;19.31;100.00;101460.75;4810523;29;20058;-66
2023/08/24 04:35:10;;;;;;;13.75;7.82;;;;;;;19.34;100.00;101454.63;4795948;29;20058;-65
2023/08/24 04:37:38;;;;;;;15.30;8.32;;;;;;;19.41;100.00;101459.69;4814183;29;20065;-65
2023/08/24 04:40:11;;;;;;;13.55;8.13;;;;;;;19.43;100.00;101455.50;4777560;29;20061;-66
2023/08/24 04:42:38;;;;;;;11.90;7.05;;;;;;;19.45;100.00;101467.06;4809598;29;20047;-65
2023/08/24 04:45:07;;;;;;;16.92;9.73;;;;;;;19.42;100.00;101458.59;4792086;29;20066;-66
2023/08/24 04:47:35;;;;;;;15.57;9.57;;;;;;;19.33;100.00;101466.78;4807608;29;20064;-65
2023/08/24 04:50:03;;;;;;;16.83;9.02;;;;;;;19.27;100.00;101468.03;4800152;29;20126;-65
2023/08/24 04:52:31;;;;;;;16.45;8.30;;;;;;;19.24;100.00;101460.34;4813799;29;20102;-65
2023/08/24 04:55:04;;;;;;;16.42;8.40;;;;;;;19.27;100.00;101463.34;4830437;29;20547;-64
2023/08/24 04:57:32;;;;;;;16.42;8.65;;;;;;;19.33;100.00;101469.53;4812207;29;20078;-65
2023/08/24 05:00:00;;;;;;;11.98;8.50;;;;;;;19.37;100.00;101476.09;4791839;29;20082;-66
2023/08/24 05:02:27;;;;;;;17.83;8.80;;;;;;;19.42;100.00;101467.69;4808985;29;20678;-65
2023/08/24 05:04:55;;;;;;;16.75;8.18;;;;;;;19.46;100.00;101460.41;4792687;29;20055;-65
2023/08/24 05:07:23;;;;;;;13.38;8.07;;;;;;;19.47;100.00;101464.78;4808137;29;20062;-66
2023/08/24 05:09:51;;;;;;;16.80;9.35;;;;;;;19.48;100.00;101471.97;4776951;29;20504;-65
2023/08/24 05:12:18;;;;;;;18.02;8.70;;;;;;;19.43;100.00;101471.25;4808352;29;20115;-65
2023/08/24 05:14:46;;;;;;;14.05;8.63;;;;;;;19.39;100.00;101465.56;4812485;29;20043;-65
2023/08/24 05:17:14;;;;;;;17.73;8.48;;;;;;;19.36;100.00;101471.69;4811244;29;20130;-66
2023/08/24 05:19:41;;;;;;;21.75;9.60;;;;;;;19.37;100.00;101470.56;4808319;29;20058;-66
2023/08/24 05:22:09;;;;;;;16.85;10.25;;;;;;;19.35;100.00;101459.81;4792197;29;20468;-66
2023/08/24 05:24:37;;;;;;;14.98;8.57;;;;;;;19.39;100.00;101468.31;4807771;29;20061;-65
2023/08/24 05:27:05;;;;;;;13.43;8.60;;;;;;;19.42;100.00;101470.44;4808753;29;20050;-65
2023/08/24 05:29:33;;;;;;;17.63;9.00;;;;;;;19.45;100.00;101463.47;4807769;29;20500;-66
2023/08/24 05:32:02;;;;;;;12.80;7.85;;;;;;;19.49;100.00;101459.78;4791550;29;20061;-65
2023/08/24 05:34:30;;;;;;;14.70;7.85;;;;;;;19.54;100.00;101454.13;4792147;29;20167;-66
2023/08/24 05:36:58;;;;;;;15.95;8.73;;;;;;;19.53;100.00;101446.97;4791308;29;20081;-66
2023/08/24 05:39:26;;;;;;;17.60;10.18;;;;;;;19.53;100.00;101446.13;4809090;29;20393;-66
2023/08/24 05:41:54;;;;;;;15.48;8.30;;;;;;;19.50;100.00;101439.28;4807887;29;20434;-65
2023/08/24 05:44:22;;;;;;;16.23;9.68;;;;;;;19.51;100.00;101443.69;4790438;29;20055;-66
2023/08/24 05:46:50;;;;;;;12.77;7.72;;;;;;;19.54;100.00;101445.03;4143675;29;10000699;-66
2023/08/24 05:49:17;;;;;;;20.30;8.93;;;;;;;19.58;100.00;101440.50;4804430;29;20059;-66
2023/08/24 05:51:45;;;;;;;14.43;8.57;;;;;;;19.62;100.00;101437.91;4804622;29;20061;-65
2023/08/24 05:54:17;;;;;;;14.43;9.20;;;;;;;19.63;100.00;101428.50;4804512;29;20058;-67
2023/08/24 05:56:48;;;;;;;16.05;7.93;;;;;;;19.66;100.00;101416.81;4803736;29;20055;-66
2023/08/24 05:59:16;;;;;;;18.30;10.77;;;;;;;19.67;100.00;101412.91;4803732;29;20059;-65
2023/08/24 06:01:43;;;;;;;15.50;9.85;;;;;;;19.67;100.00;101410.94;4789146;29;20062;-66
2023/08/24 06:04:12;;;;;;;15.10;8.95;;;;;;;19.66;100.00;101406.56;4809463;29;20046;-66
2023/08/24 06:06:39;;;;;;;19.25;9.93;;;;;;;19.69;100.00;101396.84;4817623;29;20054;-67
2023/08/24 06:09:07;;;;;;;19.85;11.30;;;;;;;19.69;100.00;101394.09;4805193;29;20061;-66
2023/08/24 06:11:37;;;;;;;16.02;9.90;;;;;;;19.63;100.00;101390.63;4822238;29;20050;-66
2023/08/24 06:14:08;;;;;;;18.08;9.38;;;;;;;19.62;100.00;101380.66;4806029;29;20267;-66
2023/08/24 06:16:36;;;;;;;20.73;8.93;;;;;;;19.65;100.00;101370.94;4805085;29;20381;-68
2023/08/24 06:19:03;;;;;;;19.15;9.30;;;;;;;19.68;100.00;101364.81;4805930;29;20054;-67
2023/08/24 06:21:31;;;;;;;17.55;10.88;;;;;;;19.71;100.00;101361.41;4808852;29;20061;-67
2023/08/24 06:24:01;;;;;;;17.95;9.23;;;;;;;19.74;100.00;101363.53;4821297;29;20058;-66
2023/08/24 06:26:28;;;;;;;17.23;10.10;;;;;;;19.79;100.00;101358.72;4797625;29;20111;-68
2023/08/24 06:28:56;;;;;;;26.15;10.05;;;;;;;19.82;100.00;101365.56;4819397;29;20476;-68
2023/08/24 06:31:24;;;;;;;17.23;10.10;;;;;;;19.86;100.00;101368.47;4805818;29;20066;-68
2023/08/24 06:33:52;;;;;;;17.48;11.50;;;;;;;19.89;100.00;101379.75;4804818;29;20057;-68
2023/08/24 06:36:20;;;;;;;19.20;9.93;;;;;;;19.90;100.00;101392.41;4797069;29;20046;-67
2023/08/24 06:38:48;;;;;;;17.92;10.48;;;;;;;19.93;100.00;101400.06;4819008;29;20499;-68
2023/08/24 06:41:16;;;;;;;16.23;8.93;;;;;;;19.95;100.00;101397.81;4823231;29;20058;-68
2023/08/24 06:43:44;;;;;;;17.38;10.02;;;;;;;19.96;100.00;101401.38;4811834;29;20054;-68
2023/08/24 06:46:12;;;;;;;17.92;10.45;;;;;;;19.98;100.00;101397.16;4817548;29;20058;-67
2023/08/24 06:48:43;;;;;;;18.75;9.50;;;;;;;20.05;100.00;101401.44;4823946;29;20426;-68
2023/08/24 06:51:11;;;;;;;15.52;9.30;;;;;;;20.08;100.00;101395.28;4824239;29;20051;-68
2023/08/24 06:53:39;;;;;;;15.88;9.25;;;;;;;20.12;100.00;101388.78;4809483;29;20061;-67
2023/08/24 06:56:07;;;;;;;17.02;9.60;;;;;;;20.16;100.00;101394.50;4827840;29;20058;-67
2023/08/24 06:58:37;;;;;;;14.38;8.93;;;;;;;20.20;100.00;101378.88;4845832;29;20045;-67
2023/08/24 07:01:06;;;;;;;14.73;9.82;;;;;;;20.23;100.00;101378.25;4842753;29;20058;-68
2023/08/24 07:03:34;;;;;;;15.40;9.93;;;;;;;20.23;100.00;101383.78;4820738;29;20116;-67
2023/08/24 07:06:03;;;;;;;16.48;9.68;;;;;;;20.26;100.00;101382.34;4827265;29;20144;-68
2023/08/24 07:08:30;;;;;;;14.93;9.43;;;;;;;20.29;100.00;101382.50;4827632;29;20050;-67
2023/08/24 07:10:58;;;;;;;21.70;13.40;;;;;;;20.31;100.00;101382.19;4826941;29;20046;-67
2023/08/24 07:13:27;;;;;;;24.23;13.18;;;;;;;20.29;100.00;101385.25;4827714;29;20404;-66
2023/08/24 07:15:55;;;;;;;20.20;13.18;;;;;;;20.27;100.00;101382.00;4828073;29;20106;-67
2023/08/24 07:18:23;;;;;;;19.85;12.32;;;;;;;20.27;100.00;101373.69;4827924;29;20050;-67
2023/08/24 07:20:51;;;;;;;17.25;11.82;;;;;;;20.28;100.00;101367.03;4828039;29;20084;-66
2023/08/24 07:23:18;;;;;;;18.05;11.70;;;;;;;20.30;100.00;101362.00;4812021;29;20062;-66
2023/08/24 07:25:46;;;;;;;19.40;11.77;;;;;;;20.33;100.00;101366.09;4797667;29;20504;-66
2023/08/24 07:28:14;;;;;;;18.30;11.70;;;;;;;20.36;100.00;101365.44;4828607;29;20051;-66
2023/08/24 07:30:41;;;;;;;20.85;13.13;;;;;;;20.37;100.00;101356.81;4827938;29;20058;-66
2023/08/24 07:33:09;;;;;;;19.85;11.45;;;;;;;20.41;100.00;101363.31;4781622;29;20054;-68
2023/08/24 07:35:37;;;;;;;18.20;10.27;;;;;;;20.45;100.00;101359.94;4811936;29;20049;-66
2023/08/24 07:38:05;;;;;;;17.52;10.45;;;;;;;20.48;100.00;101353.75;4828706;29;20053;-67
2023/08/24 07:40:33;;;;;;;17.98;11.40;;;;;;;20.51;100.00;101355.84;4828369;29;20149;-66
2023/08/24 07:43:00;;;;;;;25.25;12.55;;;;;;;20.54;100.00;101349.66;4812896;29;20064;-67
2023/08/24 07:45:28;;;;;;;18.52;10.93;;;;;;;20.58;100.00;101357.03;4811324;29;20096;-65
2023/08/24 07:47:56;;;;;;;20.35;13.30;;;;;;;20.62;100.00;101363.56;4808692;29;20062;-67
2023/08/24 07:50:24;;;;;;;18.85;12.23;;;;;;;20.68;100.00;101371.72;4827957;29;20063;-64
2023/08/24 07:52:52;;;;;;;18.33;11.07;;;;;;;20.71;100.00;101357.22;4827406;29;20082;-66
2023/08/24 07:55:24;;;;;;;21.55;10.60;;;;;;;20.72;100.00;101351.38;4812253;29;20058;-64
2023/08/24 07:57:52;;;;;;;19.23;12.90;;;;;;;20.73;100.00;101347.44;4818676;29;20137;-62
2023/08/24 08:00:21;;;;;;;20.95;11.98;;;;;;;20.76;100.00;101344.06;4806604;29;20123;-62
2023/08/24 08:02:51;;;;;;;15.75;10.30;;;;;;;20.80;100.00;101345.00;4807066;29;20089;-61
2023/08/24 08:05:19;;;;;;;21.60;11.98;;;;;;;20.88;100.00;101342.56;4816435;29;20137;-67
2023/08/24 08:07:47;;;;;;;18.95;10.68;;;;;;;20.95;100.00;101348.44;4809812;29;20500;-66
2023/08/24 08:10:17;;;;;;;24.75;10.45;;;;;;;21.02;100.00;101362.63;4801251;29;20054;-67
2023/08/24 08:12:45;;;;;;;16.40;9.85;;;;;;;21.08;100.00;101358.56;4822439;29;20062;-66
2023/08/24 08:15:13;;;;;;;17.88;10.20;;;;;;;21.13;100.00;101355.63;4794633;29;20051;-66
2023/08/24 08:17:42;;;;;;;16.55;10.05;;;;;;;21.17;100.00;101355.81;4809968;29;20442;-67
2023/08/24 08:20:11;;;;;;;19.10;10.43;;;;;;;21.20;100.00;101355.94;4793956;29;20054;-66
2023/08/24 08:22:39;;;;;;;15.80;10.98;;;;;;;21.26;100.00;101359.34;4794484;29;20063;-67
2023/08/24 08:25:07;;;;;;;18.65;9.43;;;;;;;21.31;100.00;101355.59;4809622;29;20050;-67
2023/08/24 08:27:35;;;;;;;17.88;9.68;;;;;;;21.34;100.00;101354.97;4809664;29;20051;-67
2023/08/24 08:30:06;;;;;;;18.08;10.07;;;;;;;21.38;100.00;101361.47;4808391;29;20074;-67
2023/08/24 08:32:34;;;;;;;17.55;10.00;;;;;;;21.43;100.00;101353.00;4806842;29;20465;-66
2023/08/24 08:35:04;;;;;;;21.85;12.07;;;;;;;21.47;100.00;101352.03;4794486;29;20442;-67
2023/08/24 08:37:32;;;;;;;18.65;10.07;;;;;;;21.47;100.00;101345.66;4815540;29;20043;-67
2023/08/24 08:39:59;;;;;;;17.20;8.68;;;;;;;21.47;100.00;101337.34;4807690;29;20061;-67
2023/08/24 08:42:30;;;;;;;15.90;9.35;;;;;;;21.49;100.00;101319.25;4819954;29;20047;-68
2023/08/24 08:44:58;;;;;;;16.17;10.23;;;;;;;21.54;100.00;101314.66;4794802;29;20070;-68
2023/08/24 08:47:26;;;;;;;20.55;11.20;;;;;;;21.58;100.00;101304.56;4774549;30;20057;-67
2023/08/24 08:49:56;;;;;;;16.90;11.52;;;;;;;21.60;100.00;101303.06;4792831;30;20452;-67
2023/08/24 08:52:25;;;;;;;21.15;11.52;;;;;;;21.66;100.00;101293.41;4804071;29;20134;-66
2023/08/24 08:54:53;;;;;;;19.23;12.10;;;;;;;21.74;100.00;101277.06;4792171;29;20058;-65
2023/08/24 08:57:23;;;;;;;20.00;11.30;;;;;;;21.80;100.00;101271.00;4792048;29;20095;-66
2023/08/24 08:59:52;;;;;;;26.60;12.00;;;;;;;21.85;100.00;101258.91;4792568;29;20054;-66
2023/08/24 09:02:21;;;;;;;23.33;13.73;;;;;;;21.90;100.00;101261.50;4791648;29;20073;-66
2023/08/24 09:04:49;;;;;;;24.08;13.35;;;;;;;21.95;100.00;101255.75;4792673;29;20055;-66
2023/08/24 09:07:17;;;;;;;19.90;12.88;;;;;;;21.97;100.00;101245.13;4797759;29;20054;-66
2023/08/24 09:09:44;;;;;;;16.42;11.50;;;;;;;21.98;100.00;101255.06;4805329;29;20054;-66
2023/08/24 09:12:12;;;;;;;22.98;13.90;;;;;;;21.99;100.00;101253.13;4807956;29;20065;-65
2023/08/24 09:14:41;;;;;;;24.20;13.02;;;;;;;22.01;100.00;101248.88;4807714;29;20065;-67
2023/08/24 09:17:09;;;;;;;20.83;12.38;;;;;;;22.05;100.00;101235.94;4790793;29;20492;-67
2023/08/24 09:19:38;;;;;;;25.98;11.50;;;;;;;22.05;100.00;101241.47;4808308;29;20055;-66
2023/08/24 09:22:08;;;;;;;15.43;9.80;;;;;;;22.09;100.00;101228.56;4808038;29;20166;-66
2023/08/24 09:24:36;;;;;;;19.65;11.80;;;;;;;22.13;100.00;101204.56;4807727;29;20073;-66
2023/08/24 09:27:20;;;;;;;27.20;13.48;;;;;;;22.18;100.00;101202.75;4807355;29;20051;-65
2023/08/24 09:29:50;;;;;;;22.52;13.35;;;;;;;22.18;100.00;101194.41;4791882;29;20051;-65
2023/08/24 09:32:27;;;;;;;22.67;12.10;;;;;;;22.25;100.00;101186.38;4808112;29;20539;-64
2023/08/24 09:34:55;;;;;;;16.92;11.60;;;;;;;22.26;100.00;101190.78;4807364;29;20054;-65
2023/08/24 09:37:24;;;;;;;20.23;11.57;;;;;;;22.29;100.00;101195.66;4801838;29;20047;-64
2023/08/24 09:40:07;;;;;;;22.65;12.57;;;;;;;22.30;100.00;101200.06;4806857;29;20051;-65
2023/08/24 09:42:41;;;;;;;18.35;13.52;;;;;;;22.35;100.00;101202.63;4779311;29;20059;-66
2023/08/24 09:45:13;;;;;;;20.65;12.93;;;;;;;22.40;100.00;101207.97;4791559;29;20062;-64
2023/08/24 09:47:55;;;;;;;18.42;12.45;;;;;;;22.40;100.00;101221.84;4797909;29;20053;-65
2023/08/24 09:50:23;;;;;;;19.52;12.70;;;;;;;22.42;100.00;101227.88;4793910;29;20053;-65
2023/08/24 09:52:57;;;;;;;16.88;11.88;;;;;;;22.45;100.00;101254.16;4795731;29;20058;-64
2023/08/24 09:55:25;;;;;;;20.55;11.15;;;;;;;22.48;100.00;101259.03;4807345;29;20054;-64
2023/08/24 09:57:54;;;;;;;22.77;12.95;;;;;;;22.51;100.00;101245.31;4784013;29;20047;-65
2023/08/24 10:00:24;;;;;;;21.77;12.77;;;;;;;22.53;100.00;101244.94;4795660;29;20153;-65
2023/08/24 10:02:53;;;;;;;19.80;12.63;;;;;;;22.52;100.00;101249.69;4796434;29;20067;-66
2023/08/24 10:05:25;;;;;;;20.05;13.23;;;;;;;22.54;100.00;101244.63;4796811;29;20122;-64
2023/08/24 10:08:20;;;;;;;23.67;12.88;;;;;;;22.54;100.00;101235.47;4807866;29;20038;-66
2023/08/24 10:10:49;;;;;;;17.63;11.55;;;;;;;22.53;100.00;101239.38;4793822;29;20051;-64
2023/08/24 10:13:31;;;;;;;21.27;12.55;;;;;;;22.58;100.00;101246.72;4807113;29;20051;-65
2023/08/24 10:16:00;;;;;;;18.33;11.00;;;;;;;22.62;100.00;101245.69;4807078;29;20495;-66
2023/08/24 10:18:28;;;;;;;21.38;11.10;;;;;;;22.62;100.00;101250.44;4807416;29;20051;-65
2023/08/24 10:20:56;;;;;;;17.27;9.70;;;;;;;22.62;100.00;101247.66;4790630;29;20059;-65
2023/08/24 10:23:25;;;;;;;18.25;10.63;;;;;;;22.60;100.00;101241.63;4825346;29;20054;-65
2023/08/24 10:25:53;;;;;;;19.38;10.70;;;;;;;22.60;100.00;101238.84;4825021;29;20077;-64
2023/08/24 10:28:25;;;;;;;19.85;10.15;;;;;;;22.62;100.00;101244.88;4810191;29;20047;-63
2023/08/24 10:30:53;;;;;;;18.92;10.43;;;;;;;22.62;100.00;101240.13;4805453;29;20084;-66
2023/08/24 10:33:21;;;;;;;17.77;10.30;;;;;;;22.61;100.00;101230.19;4784211;29;20511;-65
2023/08/24 10:35:49;;;;;;;18.08;10.38;;;;;;;22.58;100.00;101222.50;4455156;29;9999759;-64
2023/08/24 10:38:27;;;;;;;15.27;9.13;;;;;;;22.55;100.00;101225.97;4806197;29;20054;-65
2023/08/24 10:41:06;;;;;;;15.55;9.40;;;;;;;22.52;100.00;101235.81;4802016;29;20097;-65
2023/08/24 10:43:38;;;;;;;15.80;10.38;;;;;;;22.56;100.00;101233.16;4811804;29;20059;-65
2023/08/24 10:46:13;;;;;;;17.73;10.20;;;;;;;22.59;100.00;101237.25;4777154;29;20063;-65
2023/08/24 10:48:41;;;;;;;15.32;9.27;;;;;;;22.59;100.00;101232.50;4803203;29;20050;-66
2023/08/24 10:51:19;;;;;;;18.45;10.60;;;;;;;22.58;100.00;101241.16;4803208;29;20054;-65
2023/08/24 10:54:00;;;;;;;22.52;11.30;;;;;;;22.59;100.00;101240.03;4803628;29;20059;-65
2023/08/24 10:56:36;;;;;;;18.33;10.30;;;;;;;22.60;100.00;101247.19;4773439;29;20059;-66
2023/08/24 10:59:17;;;;;;;14.98;9.52;;;;;;;22.61;100.00;101254.34;4787932;29;20058;-67
2023/08/24 11:01:56;;;;;;;18.55;9.82;;;;;;;22.59;100.00;101260.25;4821227;29;20504;-65
2023/08/24 11:04:25;;;;;;;18.17;10.82;;;;;;;22.60;100.00;101255.50;4812778;29;20788;-65
2023/08/24 11:06:53;;;;;;;15.13;9.93;;;;;;;22.61;100.00;101249.63;4786721;29;20058;-65
2023/08/24 11:09:23;;;;;;;16.45;10.80;;;;;;;22.63;100.00;101243.72;4786899;29;20130;-66
2023/08/24 11:12:01;;;;;;;17.35;10.10;;;;;;;22.66;100.00;101231.94;4786225;29;20692;-64
2023/08/24 11:14:30;;;;;;;16.25;10.25;;;;;;;22.70;100.00;101225.34;4786571;29;20123;-64
2023/08/24 11:17:16;;;;;;;18.00;11.27;;;;;;;22.75;100.00;101207.66;4786563;29;20492;-64
2023/08/24 11:19:52;;;;;;;17.15;10.55;;;;;;;22.80;100.00;101201.91;4794820;29;20059;-65